createdAt,value
2023-04-02T00:01:01.655Z,4.65
2023-04-02T00:03:59.581Z,3.78
2023-04-02T00:06:30.073Z,3.83
2023-04-02T00:09:04.685Z,3.67
2023-04-02T00:11:37.500Z,4.03
2023-04-02T00:14:13.350Z,4.50
2023-04-02T00:16:39.944Z,3.90
2023-04-02T00:19:12.974Z,4.68
2023-04-02T00:21:41.623Z,4.00
2023-04-02T00:24:15.568Z,4.03
2023-04-02T00:26:48.984Z,3.90
2023-04-02T00:29:17.283Z,4.07
2023-04-02T00:31:50.308Z,4.53
2023-04-02T00:34:33.262Z,4.70
2023-04-02T00:37:00.112Z,5.75
2023-04-02T00:39:30.888Z,5.97
2023-04-02T00:42:04.858Z,5.97
2023-04-02T00:44:42.771Z,5.40
2023-04-02T00:47:32.636Z,5.75
2023-04-02T00:50:23.493Z,5.90
2023-04-02T00:52:51.981Z,5.82
2023-04-02T00:55:24.807Z,6.13
2023-04-02T00:57:52.286Z,5.95
2023-04-02T01:00:22.532Z,5.53
2023-04-02T01:03:19.004Z,5.50
2023-04-02T01:06:10.819Z,5.75
2023-04-02T01:09:15.280Z,5.45
2023-04-02T01:11:41.625Z,5.35
2023-04-02T01:14:33.081Z,5.78
2023-04-02T01:17:30.447Z,6.45
2023-04-02T01:20:00.985Z,7.18
2023-04-02T01:22:48.036Z,5.53
2023-04-02T01:25:21.015Z,6.15
2023-04-02T01:28:05.998Z,5.45
2023-04-02T01:30:36.057Z,5.47
2023-04-02T01:33:03.904Z,5.65
2023-04-02T01:35:36.468Z,5.10
2023-04-02T01:38:11.894Z,4.97
2023-04-02T01:40:45.686Z,4.53
2023-04-02T01:43:35.539Z,4.78
2023-04-02T01:46:24.586Z,4.30
2023-04-02T01:48:52.922Z,4.78
2023-04-02T01:51:53.776Z,5.07
2023-04-02T01:54:21.523Z,4.75
2023-04-02T01:56:48.723Z,4.15
2023-04-02T01:59:22.413Z,3.58
2023-04-02T02:02:04.393Z,3.20
2023-04-02T02:07:18.220Z,3.20
